sensor_id;sensor_type;location;lat;lon;timestamp;noise_LAeq;noise_LA_min;noise_LA_max;noise_LA01;noise_LA95
76767;Laerm;65707;52.362;6.588;2023-02-26T00:00:36;50.83;30.84;68.44;;
76767;Laerm;65707;52.362;6.588;2023-02-26T00:03:03;34.47;30.41;39.33;;
76767;Laerm;65707;52.362;6.588;2023-02-26T00:05:29;35.32;30.52;43.15;;
76767;Laerm;65707;52.362;6.588;2023-02-26T00:07:58;36.19;30.38;50.60;;
76767;Laerm;65707;52.362;6.588;2023-02-26T00:10:25;38.76;30.62;53.56;;
76767;Laerm;65707;52.362;6.588;2023-02-26T00:12:55;37.22;30.91;46.08;;
76767;Laerm;65707;52.362;6.588;2023-02-26T00:15:22;36.64;30.52;52.85;;
76767;Laerm;65707;52.362;6.588;2023-02-26T00:17:58;36.07;30.24;51.96;;
76767;Laerm;65707;52.362;6.588;2023-02-26T00:20:28;58.78;30.40;79.59;;
76767;Laerm;65707;52.362;6.588;2023-02-26T00:22:57;38.10;30.74;52.02;;
76767;Laerm;65707;52.362;6.588;2023-02-26T00:25:24;34.52;30.40;45.96;;
76767;Laerm;65707;52.362;6.588;2023-02-26T00:27:55;37.13;30.35;49.51;;
76767;Laerm;65707;52.362;6.588;2023-02-26T00:30:22;37.73;30.57;54.03;;
76767;Laerm;65707;52.362;6.588;2023-02-26T00:32:50;54.30;30.47;72.85;;
76767;Laerm;65707;52.362;6.588;2023-02-26T00:35:18;34.68;30.34;42.05;;
76767;Laerm;65707;52.362;6.588;2023-02-26T00:38:02;37.11;30.42;55.10;;
76767;Laerm;65707;52.362;6.588;2023-02-26T00:40:39;40.58;30.59;55.57;;
76767;Laerm;65707;52.362;6.588;2023-02-26T00:43:13;35.43;30.50;44.72;;
76767;Laerm;65707;52.362;6.588;2023-02-26T00:45:46;38.54;30.52;53.01;;
76767;Laerm;65707;52.362;6.588;2023-02-26T00:48:33;34.09;30.17;37.87;;
76767;Laerm;65707;52.362;6.588;2023-02-26T00:51:16;41.35;30.48;52.41;;
76767;Laerm;65707;52.362;6.588;2023-02-26T00:53:54;35.08;30.39;45.01;;
76767;Laerm;65707;52.362;6.588;2023-02-26T00:56:25;34.69;30.24;41.55;;
76767;Laerm;65707;52.362;6.588;2023-02-26T00:58:52;34.38;30.58;38.53;;
76767;Laerm;65707;52.362;6.588;2023-02-26T01:01:22;34.50;30.17;46.52;;
76767;Laerm;65707;52.362;6.588;2023-02-26T01:03:50;34.39;30.43;38.14;;
76767;Laerm;65707;52.362;6.588;2023-02-26T01:06:20;37.75;30.38;51.54;;
76767;Laerm;65707;52.362;6.588;2023-02-26T01:08:54;34.38;30.54;38.22;;
76767;Laerm;65707;52.362;6.588;2023-02-26T01:11:25;35.95;30.52;51.11;;
76767;Laerm;65707;52.362;6.588;2023-02-26T01:13:53;34.34;30.38;38.15;;
76767;Laerm;65707;52.362;6.588;2023-02-26T01:16:26;36.07;30.65;50.31;;
76767;Laerm;65707;52.362;6.588;2023-02-26T01:19:00;35.27;30.31;45.34;;
76767;Laerm;65707;52.362;6.588;2023-02-26T01:21:33;37.86;30.29;55.24;;
76767;Laerm;65707;52.362;6.588;2023-02-26T01:24:10;34.28;30.27;37.85;;
76767;Laerm;65707;52.362;6.588;2023-02-26T01:26:39;37.01;30.48;54.05;;
76767;Laerm;65707;52.362;6.588;2023-02-26T01:29:06;36.59;30.76;48.70;;
76767;Laerm;65707;52.362;6.588;2023-02-26T01:31:41;35.71;30.78;46.67;;
76767;Laerm;65707;52.362;6.588;2023-02-26T01:34:19;35.09;30.84;40.69;;
76767;Laerm;65707;52.362;6.588;2023-02-26T01:36:57;34.81;30.31;47.22;;
76767;Laerm;65707;52.362;6.588;2023-02-26T01:39:36;46.14;30.29;59.30;;
76767;Laerm;65707;52.362;6.588;2023-02-26T01:42:15;37.50;30.30;54.04;;
76767;Laerm;65707;52.362;6.588;2023-02-26T01:44:56;36.76;30.24;53.57;;
76767;Laerm;65707;52.362;6.588;2023-02-26T01:47:32;34.41;30.30;38.22;;
76767;Laerm;65707;52.362;6.588;2023-02-26T01:50:14;34.54;30.43;39.07;;
76767;Laerm;65707;52.362;6.588;2023-02-26T01:53:20;36.76;30.34;53.34;;
76767;Laerm;65707;52.362;6.588;2023-02-26T01:55:55;34.68;30.38;46.89;;
76767;Laerm;65707;52.362;6.588;2023-02-26T01:58:25;34.54;30.39;38.39;;
76767;Laerm;65707;52.362;6.588;2023-02-26T02:00:53;34.42;30.26;39.45;;
76767;Laerm;65707;52.362;6.588;2023-02-26T02:03:22;35.30;30.35;48.68;;
76767;Laerm;65707;52.362;6.588;2023-02-26T02:05:56;37.32;30.52;50.43;;
76767;Laerm;65707;52.362;6.588;2023-02-26T02:08:24;35.70;30.51;44.62;;
76767;Laerm;65707;52.362;6.588;2023-02-26T02:10:53;34.47;30.16;38.39;;
76767;Laerm;65707;52.362;6.588;2023-02-26T02:13:36;34.90;30.14;51.82;;
76767;Laerm;65707;52.362;6.588;2023-02-26T02:16:19;34.43;30.44;38.55;;
76767;Laerm;65707;52.362;6.588;2023-02-26T02:18:58;37.12;30.30;62.29;;
76767;Laerm;65707;52.362;6.588;2023-02-26T02:21:51;35.27;30.50;41.12;;
76767;Laerm;65707;52.362;6.588;2023-02-26T02:24:34;35.08;30.56;41.64;;
76767;Laerm;65707;52.362;6.588;2023-02-26T02:27:22;34.59;30.28;43.88;;
76767;Laerm;65707;52.362;6.588;2023-02-26T02:30:17;38.98;30.22;52.34;;
76767;Laerm;65707;52.362;6.588;2023-02-26T02:32:56;34.51;30.22;39.72;;
76767;Laerm;65707;52.362;6.588;2023-02-26T02:35:28;34.34;29.79;40.77;;
76767;Laerm;65707;52.362;6.588;2023-02-26T02:38:06;37.86;30.25;52.32;;
76767;Laerm;65707;52.362;6.588;2023-02-26T02:40:43;37.26;30.31;50.48;;
76767;Laerm;65707;52.362;6.588;2023-02-26T02:43:14;36.03;30.16;50.98;;
76767;Laerm;65707;52.362;6.588;2023-02-26T02:45:47;35.51;30.34;47.54;;
76767;Laerm;65707;52.362;6.588;2023-02-26T02:48:22;34.33;30.07;49.37;;
76767;Laerm;65707;52.362;6.588;2023-02-26T02:50:56;39.97;30.41;56.41;;
76767;Laerm;65707;52.362;6.588;2023-02-26T02:53:32;34.57;30.19;44.22;;
76767;Laerm;65707;52.362;6.588;2023-02-26T02:56:07;35.79;30.20;51.74;;
76767;Laerm;65707;52.362;6.588;2023-02-26T02:58:41;34.45;30.26;37.99;;
76767;Laerm;65707;52.362;6.588;2023-02-26T03:01:13;37.17;30.56;51.33;;
76767;Laerm;65707;52.362;6.588;2023-02-26T03:03:52;34.84;30.18;40.43;;
76767;Laerm;65707;52.362;6.588;2023-02-26T03:06:21;34.40;30.17;37.91;;
76767;Laerm;65707;52.362;6.588;2023-02-26T03:08:51;34.35;30.08;37.89;;
76767;Laerm;65707;52.362;6.588;2023-02-26T03:11:19;34.34;30.29;38.34;;
76767;Laerm;65707;52.362;6.588;2023-02-26T03:13:48;34.58;30.37;40.21;;
76767;Laerm;65707;52.362;6.588;2023-02-26T03:16:32;34.99;30.09;45.60;;
76767;Laerm;65707;52.362;6.588;2023-02-26T03:19:12;34.56;30.22;42.37;;
76767;Laerm;65707;52.362;6.588;2023-02-26T03:21:49;35.06;30.49;46.79;;
76767;Laerm;65707;52.362;6.588;2023-02-26T03:24:28;35.53;30.30;51.79;;
76767;Laerm;65707;52.362;6.588;2023-02-26T03:27:08;35.34;29.98;47.09;;
76767;Laerm;65707;52.362;6.588;2023-02-26T03:29:44;34.46;30.30;39.82;;
76767;Laerm;65707;52.362;6.588;2023-02-26T03:32:17;34.27;30.13;45.00;;
76767;Laerm;65707;52.362;6.588;2023-02-26T03:34:52;34.71;30.34;46.82;;
76767;Laerm;65707;52.362;6.588;2023-02-26T03:37:26;36.50;30.07;47.12;;
76767;Laerm;65707;52.362;6.588;2023-02-26T03:40:02;34.85;30.20;50.60;;
76767;Laerm;65707;52.362;6.588;2023-02-26T03:42:37;34.75;30.47;40.33;;
76767;Laerm;65707;52.362;6.588;2023-02-26T03:45:11;36.40;30.61;46.47;;
76767;Laerm;65707;52.362;6.588;2023-02-26T03:47:44;35.86;30.33;46.79;;
76767;Laerm;65707;52.362;6.588;2023-02-26T03:50:20;43.22;30.51;57.57;;
76767;Laerm;65707;52.362;6.588;2023-02-26T03:52:52;39.09;30.97;50.38;;
76767;Laerm;65707;52.362;6.588;2023-02-26T03:55:27;36.98;30.25;50.67;;
76767;Laerm;65707;52.362;6.588;2023-02-26T03:57:56;35.24;30.39;46.69;;
76767;Laerm;65707;52.362;6.588;2023-02-26T04:00:23;36.54;30.16;49.63;;
76767;Laerm;65707;52.362;6.588;2023-02-26T04:02:59;36.54;30.19;47.74;;
76767;Laerm;65707;52.362;6.588;2023-02-26T04:05:34;36.72;30.34;46.97;;
76767;Laerm;65707;52.362;6.588;2023-02-26T04:08:02;35.48;30.30;46.71;;
76767;Laerm;65707;52.362;6.588;2023-02-26T04:10:37;35.13;30.18;44.86;;
76767;Laerm;65707;52.362;6.588;2023-02-26T04:13:07;35.07;30.13;44.36;;
76767;Laerm;65707;52.362;6.588;2023-02-26T04:15:34;35.20;30.35;44.80;;
76767;Laerm;65707;52.362;6.588;2023-02-26T04:18:00;35.16;30.56;44.91;;
76767;Laerm;65707;52.362;6.588;2023-02-26T04:20:29;36.22;30.53;47.53;;
76767;Laerm;65707;52.362;6.588;2023-02-26T04:22:55;38.87;30.87;48.34;;
76767;Laerm;65707;52.362;6.588;2023-02-26T04:25:22;35.33;30.33;44.62;;
76767;Laerm;65707;52.362;6.588;2023-02-26T04:27:49;35.36;30.45;45.62;;
76767;Laerm;65707;52.362;6.588;2023-02-26T04:30:16;35.56;30.41;46.89;;
76767;Laerm;65707;52.362;6.588;2023-02-26T04:32:43;35.54;30.45;44.83;;
76767;Laerm;65707;52.362;6.588;2023-02-26T04:35:10;35.19;30.28;42.84;;
76767;Laerm;65707;52.362;6.588;2023-02-26T04:37:38;36.20;30.66;46.85;;
76767;Laerm;65707;52.362;6.588;2023-02-26T04:40:07;36.19;30.29;47.91;;
76767;Laerm;65707;52.362;6.588;2023-02-26T04:42:34;41.39;30.45;52.24;;
76767;Laerm;65707;52.362;6.588;2023-02-26T04:45:01;37.87;30.64;51.81;;
76767;Laerm;65707;52.362;6.588;2023-02-26T04:47:28;36.68;30.43;47.02;;
76767;Laerm;65707;52.362;6.588;2023-02-26T04:49:55;35.22;30.50;43.23;;
76767;Laerm;65707;52.362;6.588;2023-02-26T04:52:22;37.22;30.36;44.71;;
76767;Laerm;65707;52.362;6.588;2023-02-26T04:54:50;36.46;30.39;48.42;;
76767;Laerm;65707;52.362;6.588;2023-02-26T04:57:17;35.63;31.11;45.34;;
76767;Laerm;65707;52.362;6.588;2023-02-26T04:59:43;37.25;31.21;48.81;;
76767;Laerm;65707;52.362;6.588;2023-02-26T05:02:10;36.02;30.46;48.32;;
76767;Laerm;65707;52.362;6.588;2023-02-26T05:04:37;35.39;30.48;45.78;;
76767;Laerm;65707;52.362;6.588;2023-02-26T05:07:04;37.27;30.75;52.23;;
76767;Laerm;65707;52.362;6.588;2023-02-26T05:09:31;35.35;30.50;48.40;;
76767;Laerm;65707;52.362;6.588;2023-02-26T05:11:59;35.35;30.70;44.49;;
76767;Laerm;65707;52.362;6.588;2023-02-26T05:14:25;37.02;30.77;44.77;;
76767;Laerm;65707;52.362;6.588;2023-02-26T05:16:55;37.27;30.86;51.88;;
76767;Laerm;65707;52.362;6.588;2023-02-26T05:19:22;36.86;30.44;51.46;;
76767;Laerm;65707;52.362;6.588;2023-02-26T05:21:49;35.63;30.25;46.34;;
76767;Laerm;65707;52.362;6.588;2023-02-26T05:24:16;37.80;30.65;52.52;;
76767;Laerm;65707;52.362;6.588;2023-02-26T05:26:43;35.97;30.56;44.67;;
76767;Laerm;65707;52.362;6.588;2023-02-26T05:29:12;35.27;30.82;44.12;;
76767;Laerm;65707;52.362;6.588;2023-02-26T05:31:39;36.40;31.12;44.00;;
76767;Laerm;65707;52.362;6.588;2023-02-26T05:34:06;43.23;30.99;57.34;;
76767;Laerm;65707;52.362;6.588;2023-02-26T05:36:33;44.12;31.20;58.01;;
76767;Laerm;65707;52.362;6.588;2023-02-26T05:39:00;44.14;31.29;58.55;;
76767;Laerm;65707;52.362;6.588;2023-02-26T05:41:27;44.83;31.09;62.88;;
76767;Laerm;65707;52.362;6.588;2023-02-26T05:43:54;45.78;31.00;61.52;;
76767;Laerm;65707;52.362;6.588;2023-02-26T05:46:22;45.75;31.08;62.80;;
76767;Laerm;65707;52.362;6.588;2023-02-26T05:48:49;43.22;30.84;59.72;;
76767;Laerm;65707;52.362;6.588;2023-02-26T05:51:16;43.35;30.72;57.07;;
76767;Laerm;65707;52.362;6.588;2023-02-26T05:53:44;42.80;31.16;56.52;;
76767;Laerm;65707;52.362;6.588;2023-02-26T05:56:11;48.67;31.07;70.57;;
76767;Laerm;65707;52.362;6.588;2023-02-26T05:58:37;44.16;30.98;59.89;;
76767;Laerm;65707;52.362;6.588;2023-02-26T06:01:07;41.57;31.12;59.25;;
76767;Laerm;65707;52.362;6.588;2023-02-26T06:03:35;41.37;30.92;58.86;;
76767;Laerm;65707;52.362;6.588;2023-02-26T06:06:04;41.63;31.30;54.98;;
76767;Laerm;65707;52.362;6.588;2023-02-26T06:08:31;43.31;31.43;65.38;;
76767;Laerm;65707;52.362;6.588;2023-02-26T06:10:58;37.57;31.02;53.93;;
76767;Laerm;65707;52.362;6.588;2023-02-26T06:13:24;36.80;30.91;58.05;;
76767;Laerm;65707;52.362;6.588;2023-02-26T06:15:51;38.99;31.44;53.75;;
76767;Laerm;65707;52.362;6.588;2023-02-26T06:18:19;41.82;31.87;56.74;;
76767;Laerm;65707;52.362;6.588;2023-02-26T06:20:47;40.48;31.54;54.31;;
76767;Laerm;65707;52.362;6.588;2023-02-26T06:23:14;40.20;31.43;54.97;;
76767;Laerm;65707;52.362;6.588;2023-02-26T06:25:41;38.09;31.96;48.44;;
76767;Laerm;65707;52.362;6.588;2023-02-26T06:28:08;40.62;31.95;64.51;;
76767;Laerm;65707;52.362;6.588;2023-02-26T06:30:35;41.99;31.61;62.67;;
76767;Laerm;65707;52.362;6.588;2023-02-26T06:33:02;39.96;31.86;56.68;;
76767;Laerm;65707;52.362;6.588;2023-02-26T06:35:28;38.91;32.26;54.56;;
76767;Laerm;65707;52.362;6.588;2023-02-26T06:37:57;58.87;32.09;78.45;;
76767;Laerm;65707;52.362;6.588;2023-02-26T06:40:24;43.16;31.91;63.05;;
76767;Laerm;65707;52.362;6.588;2023-02-26T06:42:51;42.24;32.41;53.27;;
76767;Laerm;65707;52.362;6.588;2023-02-26T06:45:18;41.29;33.00;56.20;;
76767;Laerm;65707;52.362;6.588;2023-02-26T06:47:45;70.16;32.05;82.88;;
76767;Laerm;65707;52.362;6.588;2023-02-26T06:50:12;40.76;32.09;52.89;;
76767;Laerm;65707;52.362;6.588;2023-02-26T06:52:39;38.42;32.01;55.15;;
76767;Laerm;65707;52.362;6.588;2023-02-26T06:55:09;36.55;31.33;52.35;;
76767;Laerm;65707;52.362;6.588;2023-02-26T06:57:36;40.32;31.47;53.19;;
76767;Laerm;65707;52.362;6.588;2023-02-26T07:00:06;52.80;31.59;72.87;;
76767;Laerm;65707;52.362;6.588;2023-02-26T07:02:33;37.79;31.84;47.98;;
76767;Laerm;65707;52.362;6.588;2023-02-26T07:05:00;38.62;31.80;51.02;;
76767;Laerm;65707;52.362;6.588;2023-02-26T07:07:28;38.72;31.95;48.72;;
76767;Laerm;65707;52.362;6.588;2023-02-26T07:09:55;61.90;31.93;78.18;;
76767;Laerm;65707;52.362;6.588;2023-02-26T07:12:23;40.56;32.34;56.50;;
76767;Laerm;65707;52.362;6.588;2023-02-26T07:14:50;39.52;31.44;56.85;;
76767;Laerm;65707;52.362;6.588;2023-02-26T07:17:17;41.52;31.56;56.62;;
76767;Laerm;65707;52.362;6.588;2023-02-26T07:19:46;41.32;32.22;55.47;;
76767;Laerm;65707;52.362;6.588;2023-02-26T07:22:14;42.49;31.69;57.54;;
76767;Laerm;65707;52.362;6.588;2023-02-26T07:24:41;46.24;31.39;67.73;;
76767;Laerm;65707;52.362;6.588;2023-02-26T07:27:10;41.08;31.96;60.71;;
76767;Laerm;65707;52.362;6.588;2023-02-26T07:29:38;41.41;31.72;57.07;;
76767;Laerm;65707;52.362;6.588;2023-02-26T07:32:05;51.29;30.99;69.56;;
76767;Laerm;65707;52.362;6.588;2023-02-26T07:34:33;40.91;31.04;49.95;;
76767;Laerm;65707;52.362;6.588;2023-02-26T07:37:00;54.96;33.42;74.08;;
76767;Laerm;65707;52.362;6.588;2023-02-26T07:39:27;63.99;32.22;81.48;;
76767;Laerm;65707;52.362;6.588;2023-02-26T07:41:54;59.05;31.74;78.20;;
76767;Laerm;65707;52.362;6.588;2023-02-26T07:44:21;36.59;31.05;51.07;;
76767;Laerm;65707;52.362;6.588;2023-02-26T07:46:49;40.22;31.64;55.10;;
76767;Laerm;65707;52.362;6.588;2023-02-26T07:49:16;40.42;32.39;50.94;;
76767;Laerm;65707;52.362;6.588;2023-02-26T07:51:43;55.69;31.94;75.72;;
76767;Laerm;65707;52.362;6.588;2023-02-26T07:54:11;54.14;32.09;73.80;;
76767;Laerm;65707;52.362;6.588;2023-02-26T07:56:38;45.06;33.22;64.40;;
76767;Laerm;65707;52.362;6.588;2023-02-26T07:59:07;51.34;33.49;70.05;;
76767;Laerm;65707;52.362;6.588;2023-02-26T08:01:35;42.73;32.70;54.14;;
76767;Laerm;65707;52.362;6.588;2023-02-26T08:04:04;39.53;33.45;54.47;;
76767;Laerm;65707;52.362;6.588;2023-02-26T08:06:31;39.01;32.39;54.25;;
76767;Laerm;65707;52.362;6.588;2023-02-26T08:09:00;55.02;32.67;73.85;;
76767;Laerm;65707;52.362;6.588;2023-02-26T08:11:27;58.22;33.65;77.29;;
76767;Laerm;65707;52.362;6.588;2023-02-26T08:13:56;65.87;33.72;80.44;;
76767;Laerm;65707;52.362;6.588;2023-02-26T08:16:24;66.06;32.86;80.63;;
76767;Laerm;65707;52.362;6.588;2023-02-26T08:18:53;59.50;34.03;79.70;;
76767;Laerm;65707;52.362;6.588;2023-02-26T08:21:22;58.15;32.99;77.57;;
76767;Laerm;65707;52.362;6.588;2023-02-26T08:23:49;52.42;33.17;72.94;;
76767;Laerm;65707;52.362;6.588;2023-02-26T08:26:17;40.97;32.53;54.54;;
76767;Laerm;65707;52.362;6.588;2023-02-26T08:28:44;46.24;32.41;65.84;;
76767;Laerm;65707;52.362;6.588;2023-02-26T08:31:16;60.35;32.29;88.49;;
76767;Laerm;65707;52.362;6.588;2023-02-26T08:33:43;46.39;32.89;64.06;;
76767;Laerm;65707;52.362;6.588;2023-02-26T08:36:12;39.99;31.94;54.89;;
76767;Laerm;65707;52.362;6.588;2023-02-26T08:38:40;54.90;33.04;75.32;;
76767;Laerm;65707;52.362;6.588;2023-02-26T08:41:08;58.36;32.62;77.63;;
76767;Laerm;65707;52.362;6.588;2023-02-26T08:43:35;46.09;32.03;65.09;;
76767;Laerm;65707;52.362;6.588;2023-02-26T08:46:02;45.30;32.95;61.82;;
76767;Laerm;65707;52.362;6.588;2023-02-26T08:48:29;41.66;32.72;52.35;;
76767;Laerm;65707;52.362;6.588;2023-02-26T08:50:56;56.99;32.49;77.15;;
76767;Laerm;65707;52.362;6.588;2023-02-26T08:53:26;52.41;32.90;73.23;;
76767;Laerm;65707;52.362;6.588;2023-02-26T08:55:54;41.78;33.88;58.63;;
76767;Laerm;65707;52.362;6.588;2023-02-26T08:58:21;40.63;32.56;51.93;;
76767;Laerm;65707;52.362;6.588;2023-02-26T09:00:48;51.81;34.76;71.77;;
76767;Laerm;65707;52.362;6.588;2023-02-26T09:03:15;41.33;32.01;56.72;;
76767;Laerm;65707;52.362;6.588;2023-02-26T09:05:42;42.84;34.09;56.93;;
76767;Laerm;65707;52.362;6.588;2023-02-26T09:08:11;39.66;32.46;53.68;;
76767;Laerm;65707;52.362;6.588;2023-02-26T09:10:40;58.88;32.90;76.43;;
76767;Laerm;65707;52.362;6.588;2023-02-26T09:13:08;40.55;32.65;52.90;;
76767;Laerm;65707;52.362;6.588;2023-02-26T09:15:35;41.77;32.42;58.23;;
76767;Laerm;65707;52.362;6.588;2023-02-26T09:18:06;45.26;32.16;69.32;;
76767;Laerm;65707;52.362;6.588;2023-02-26T09:20:40;41.80;32.55;53.60;;
76767;Laerm;65707;52.362;6.588;2023-02-26T09:23:08;59.55;32.75;80.28;;
76767;Laerm;65707;52.362;6.588;2023-02-26T09:25:35;54.51;33.67;74.51;;
76767;Laerm;65707;52.362;6.588;2023-02-26T09:28:03;46.81;32.01;67.42;;
76767;Laerm;65707;52.362;6.588;2023-02-26T09:30:31;49.68;31.94;70.40;;
76767;Laerm;65707;52.362;6.588;2023-02-26T09:32:58;50.27;34.53;68.46;;
76767;Laerm;65707;52.362;6.588;2023-02-26T09:35:25;46.96;34.46;63.52;;
76767;Laerm;65707;52.362;6.588;2023-02-26T09:37:52;55.12;34.58;75.35;;
76767;Laerm;65707;52.362;6.588;2023-02-26T09:40:35;58.99;34.54;78.37;;
76767;Laerm;65707;52.362;6.588;2023-02-26T09:46:09;42.67;32.79;54.35;;
76767;Laerm;65707;52.362;6.588;2023-02-26T09:48:40;41.38;32.05;52.79;;
76767;Laerm;65707;52.362;6.588;2023-02-26T09:51:17;56.93;34.30;76.47;;
76767;Laerm;65707;52.362;6.588;2023-02-26T09:53:48;47.65;33.34;64.95;;
76767;Laerm;65707;52.362;6.588;2023-02-26T09:56:20;46.52;32.98;68.03;;
76767;Laerm;65707;52.362;6.588;2023-02-26T09:58:50;52.28;33.04;70.58;;
76767;Laerm;65707;52.362;6.588;2023-02-26T10:01:28;43.57;33.68;56.48;;
76767;Laerm;65707;52.362;6.588;2023-02-26T10:04:12;50.35;35.63;68.89;;
76767;Laerm;65707;52.362;6.588;2023-02-26T10:06:59;49.76;33.25;69.66;;
76767;Laerm;65707;52.362;6.588;2023-02-26T10:09:39;60.55;34.52;76.82;;
76767;Laerm;65707;52.362;6.588;2023-02-26T10:12:16;46.25;33.77;66.39;;
76767;Laerm;65707;52.362;6.588;2023-02-26T10:14:52;45.99;33.08;64.11;;
76767;Laerm;65707;52.362;6.588;2023-02-26T10:17:31;43.44;32.78;64.60;;
76767;Laerm;65707;52.362;6.588;2023-02-26T10:20:05;62.51;34.28;77.53;;
76767;Laerm;65707;52.362;6.588;2023-02-26T10:22:41;45.73;34.51;62.30;;
76767;Laerm;65707;52.362;6.588;2023-02-26T10:25:15;51.90;34.41;72.47;;
76767;Laerm;65707;52.362;6.588;2023-02-26T10:27:57;42.83;35.84;57.98;;
76767;Laerm;65707;52.362;6.588;2023-02-26T10:30:34;50.57;35.78;69.30;;
76767;Laerm;65707;52.362;6.588;2023-02-26T10:33:17;44.67;33.63;61.18;;
76767;Laerm;65707;52.362;6.588;2023-02-26T10:35:52;43.70;34.13;57.70;;
76767;Laerm;65707;52.362;6.588;2023-02-26T10:38:24;54.01;35.71;73.76;;
76767;Laerm;65707;52.362;6.588;2023-02-26T10:40:57;57.93;32.09;77.30;;
76767;Laerm;65707;52.362;6.588;2023-02-26T10:43:32;38.98;33.48;57.82;;
76767;Laerm;65707;52.362;6.588;2023-02-26T10:46:17;44.05;35.66;64.65;;
76767;Laerm;65707;52.362;6.588;2023-02-26T10:49:09;43.12;35.13;58.01;;
76767;Laerm;65707;52.362;6.588;2023-02-26T10:51:41;60.53;34.77;79.21;;
76767;Laerm;65707;52.362;6.588;2023-02-26T10:54:19;52.08;34.73;75.27;;
76767;Laerm;65707;52.362;6.588;2023-02-26T10:56:47;43.24;34.10;56.87;;
76767;Laerm;65707;52.362;6.588;2023-02-26T10:59:14;43.01;36.76;55.77;;
76767;Laerm;65707;52.362;6.588;2023-02-26T11:01:42;51.72;36.16;68.97;;
76767;Laerm;65707;52.362;6.588;2023-02-26T11:04:15;48.68;37.84;61.24;;
76767;Laerm;65707;52.362;6.588;2023-02-26T11:06:47;48.45;36.83;68.91;;
76767;Laerm;65707;52.362;6.588;2023-02-26T11:09:22;55.17;36.13;75.28;;
76767;Laerm;65707;52.362;6.588;2023-02-26T11:11:52;57.85;33.84;76.77;;
76767;Laerm;65707;52.362;6.588;2023-02-26T11:14:20;44.07;34.59;54.92;;
76767;Laerm;65707;52.362;6.588;2023-02-26T11:16:53;44.44;35.45;62.77;;
76767;Laerm;65707;52.362;6.588;2023-02-26T11:19:28;43.66;34.59;54.62;;
76767;Laerm;65707;52.362;6.588;2023-02-26T11:21:57;57.95;38.02;77.12;;
76767;Laerm;65707;52.362;6.588;2023-02-26T11:24:33;52.35;34.33;75.41;;
76767;Laerm;65707;52.362;6.588;2023-02-26T11:27:04;43.43;35.33;56.08;;
76767;Laerm;65707;52.362;6.588;2023-02-26T11:29:37;49.34;37.77;68.54;;
76767;Laerm;65707;52.362;6.588;2023-02-26T11:32:11;51.20;36.63;69.76;;
76767;Laerm;65707;52.362;6.588;2023-02-26T11:34:47;42.37;33.14;56.37;;
76767;Laerm;65707;52.362;6.588;2023-02-26T11:37:21;41.30;33.82;53.43;;
76767;Laerm;65707;52.362;6.588;2023-02-26T11:39:55;62.70;37.44;79.95;;
76767;Laerm;65707;52.362;6.588;2023-02-26T11:42:23;45.25;37.57;56.90;;
76767;Laerm;65707;52.362;6.588;2023-02-26T11:44:51;41.70;33.13;53.62;;
76767;Laerm;65707;52.362;6.588;2023-02-26T11:47:22;68.39;34.53;84.38;;
76767;Laerm;65707;52.362;6.588;2023-02-26T11:49:55;59.23;36.03;78.21;;
76767;Laerm;65707;52.362;6.588;2023-02-26T11:52:29;47.35;35.24;74.55;;
76767;Laerm;65707;52.362;6.588;2023-02-26T11:55:04;51.00;35.49;72.07;;
76767;Laerm;65707;52.362;6.588;2023-02-26T11:57:32;41.79;33.53;53.92;;
76767;Laerm;65707;52.362;6.588;2023-02-26T12:00:17;51.58;36.60;70.55;;
76767;Laerm;65707;52.362;6.588;2023-02-26T12:02:44;46.10;37.16;58.61;;
76767;Laerm;65707;52.362;6.588;2023-02-26T12:05:16;42.98;35.38;54.08;;
76767;Laerm;65707;52.362;6.588;2023-02-26T12:07:44;42.04;33.65;59.56;;
76767;Laerm;65707;52.362;6.588;2023-02-26T12:10:15;61.12;36.40;76.90;;
76767;Laerm;65707;52.362;6.588;2023-02-26T12:13:06;44.23;35.17;55.95;;
76767;Laerm;65707;52.362;6.588;2023-02-26T12:15:45;42.05;33.55;53.76;;
76767;Laerm;65707;52.362;6.588;2023-02-26T12:18:39;42.94;34.81;59.32;;
76767;Laerm;65707;52.362;6.588;2023-02-26T12:21:44;62.52;36.18;78.36;;
76767;Laerm;65707;52.362;6.588;2023-02-26T12:24:46;51.19;34.63;71.49;;
76767;Laerm;65707;52.362;6.588;2023-02-26T12:27:27;41.75;33.97;56.57;;
76767;Laerm;65707;52.362;6.588;2023-02-26T12:30:22;50.60;34.65;71.43;;
76767;Laerm;65707;52.362;6.588;2023-02-26T12:33:12;43.86;35.23;58.77;;
76767;Laerm;65707;52.362;6.588;2023-02-26T12:35:54;43.83;35.27;66.80;;
76767;Laerm;65707;52.362;6.588;2023-02-26T12:38:34;55.41;38.26;74.12;;
76767;Laerm;65707;52.362;6.588;2023-02-26T12:41:31;57.42;34.43;76.94;;
76767;Laerm;65707;52.362;6.588;2023-02-26T12:44:22;42.70;35.27;55.02;;
76767;Laerm;65707;52.362;6.588;2023-02-26T12:47:16;41.88;35.32;50.81;;
76767;Laerm;65707;52.362;6.588;2023-02-26T12:50:27;58.12;33.67;77.05;;
76767;Laerm;65707;52.362;6.588;2023-02-26T12:53:23;50.70;35.90;71.72;;
76767;Laerm;65707;52.362;6.588;2023-02-26T12:56:18;43.32;35.48;54.26;;
76767;Laerm;65707;52.362;6.588;2023-02-26T12:59:06;51.43;34.77;71.75;;
76767;Laerm;65707;52.362;6.588;2023-02-26T13:01:55;44.12;33.89;59.16;;
76767;Laerm;65707;52.362;6.588;2023-02-26T13:05:04;41.86;34.83;56.12;;
76767;Laerm;65707;52.362;6.588;2023-02-26T13:07:51;54.05;35.04;74.42;;
76767;Laerm;65707;52.362;6.588;2023-02-26T13:10:30;59.78;35.55;78.29;;
76767;Laerm;65707;52.362;6.588;2023-02-26T13:13:46;58.78;35.17;79.02;;
76767;Laerm;65707;52.362;6.588;2023-02-26T13:16:31;42.00;33.26;54.50;;
76767;Laerm;65707;52.362;6.588;2023-02-26T13:19:10;57.40;35.96;77.85;;
76767;Laerm;65707;52.362;6.588;2023-02-26T13:21:46;44.61;36.66;63.23;;
76767;Laerm;65707;52.362;6.588;2023-02-26T13:24:22;53.00;33.10;80.06;;
76767;Laerm;65707;52.362;6.588;2023-02-26T13:26:52;42.97;34.49;54.72;;
76767;Laerm;65707;52.362;6.588;2023-02-26T13:29:31;42.19;33.48;55.50;;
76767;Laerm;65707;52.362;6.588;2023-02-26T13:32:01;50.80;35.75;70.19;;
76767;Laerm;65707;52.362;6.588;2023-02-26T13:34:40;51.17;34.30;71.59;;
76767;Laerm;65707;52.362;6.588;2023-02-26T13:37:21;49.69;36.19;69.61;;
76767;Laerm;65707;52.362;6.588;2023-02-26T13:40:05;62.03;37.63;77.96;;
76767;Laerm;65707;52.362;6.588;2023-02-26T13:42:45;48.80;34.73;63.91;;
76767;Laerm;65707;52.362;6.588;2023-02-26T13:45:33;44.47;34.77;58.49;;
76767;Laerm;65707;52.362;6.588;2023-02-26T13:48:19;49.94;36.02;69.38;;
76767;Laerm;65707;52.362;6.588;2023-02-26T13:50:59;59.29;37.91;78.27;;
76767;Laerm;65707;52.362;6.588;2023-02-26T13:53:54;51.79;35.28;76.46;;
76767;Laerm;65707;52.362;6.588;2023-02-26T13:56:51;45.54;37.07;57.57;;
76767;Laerm;65707;52.362;6.588;2023-02-26T13:59:47;50.78;34.83;70.78;;
76767;Laerm;65707;52.362;6.588;2023-02-26T14:02:44;47.55;34.26;62.26;;
76767;Laerm;65707;52.362;6.588;2023-02-26T14:08:45;54.00;34.38;75.21;;
76767;Laerm;65707;52.362;6.588;2023-02-26T14:11:56;59.27;33.06;77.14;;
76767;Laerm;65707;52.362;6.588;2023-02-26T14:14:32;40.98;33.39;55.76;;
76767;Laerm;65707;52.362;6.588;2023-02-26T14:17:34;60.45;33.11;77.60;;
76767;Laerm;65707;52.362;6.588;2023-02-26T14:20:21;57.65;36.31;80.12;;
76767;Laerm;65707;52.362;6.588;2023-02-26T14:25:53;42.26;33.55;52.48;;
76767;Laerm;65707;52.362;6.588;2023-02-26T14:28:56;41.12;32.56;63.35;;